sensor_id;sensor_type;location;lat;lon;timestamp;P1;durP1;ratioP1;P2;durP2;ratioP2
1507;SDS011;745;48.586;10.032;2024-03-06T00:01:55;21.67;;;16.10;;
1507;SDS011;745;48.586;10.032;2024-03-06T00:03:55;25.70;;;17.43;;
1507;SDS011;745;48.586;10.032;2024-03-06T00:05:56;22.17;;;15.20;;
1507;SDS011;745;48.586;10.032;2024-03-06T00:07:56;22.23;;;15.40;;
1507;SDS011;745;48.586;10.032;2024-03-06T00:09:56;23.70;;;17.37;;
1507;SDS011;745;48.586;10.032;2024-03-06T00:11:57;22.17;;;16.43;;
1507;SDS011;745;48.586;10.032;2024-03-06T00:13:58;22.03;;;16.20;;
1507;SDS011;745;48.586;10.032;2024-03-06T00:15:58;26.47;;;16.80;;
1507;SDS011;745;48.586;10.032;2024-03-06T00:17:59;26.03;;;16.27;;
1507;SDS011;745;48.586;10.032;2024-03-06T00:19:59;21.55;;;16.23;;
1507;SDS011;745;48.586;10.032;2024-03-06T00:22:00;23.17;;;16.57;;
1507;SDS011;745;48.586;10.032;2024-03-06T00:24:01;24.48;;;17.05;;
1507;SDS011;745;48.586;10.032;2024-03-06T00:26:02;22.83;;;16.17;;
1507;SDS011;745;48.586;10.032;2024-03-06T00:28:02;21.20;;;16.03;;
1507;SDS011;745;48.586;10.032;2024-03-06T00:30:03;23.13;;;16.60;;
1507;SDS011;745;48.586;10.032;2024-03-06T00:32:05;24.77;;;17.23;;
1507;SDS011;745;48.586;10.032;2024-03-06T00:34:05;22.57;;;16.07;;
1507;SDS011;745;48.586;10.032;2024-03-06T00:36:06;21.90;;;17.10;;
1507;SDS011;745;48.586;10.032;2024-03-06T00:38:06;24.13;;;17.27;;
1507;SDS011;745;48.586;10.032;2024-03-06T00:40:07;24.73;;;18.10;;
1507;SDS011;745;48.586;10.032;2024-03-06T00:42:08;26.40;;;18.13;;
1507;SDS011;745;48.586;10.032;2024-03-06T00:44:10;25.10;;;18.08;;
1507;SDS011;745;48.586;10.032;2024-03-06T00:46:10;25.93;;;18.10;;
1507;SDS011;745;48.586;10.032;2024-03-06T00:48:11;26.43;;;17.27;;
1507;SDS011;745;48.586;10.032;2024-03-06T00:50:11;25.93;;;16.90;;
1507;SDS011;745;48.586;10.032;2024-03-06T00:52:12;25.90;;;18.50;;
1507;SDS011;745;48.586;10.032;2024-03-06T00:54:12;25.67;;;18.73;;
1507;SDS011;745;48.586;10.032;2024-03-06T00:56:13;25.17;;;17.97;;
1507;SDS011;745;48.586;10.032;2024-03-06T00:58:13;24.53;;;17.47;;
1507;SDS011;745;48.586;10.032;2024-03-06T01:00:13;26.67;;;16.97;;
1507;SDS011;745;48.586;10.032;2024-03-06T01:02:16;23.88;;;16.58;;
1507;SDS011;745;48.586;10.032;2024-03-06T01:04:16;22.93;;;17.00;;
1507;SDS011;745;48.586;10.032;2024-03-06T01:06:16;23.10;;;15.73;;
1507;SDS011;745;48.586;10.032;2024-03-06T01:08:16;24.30;;;17.13;;
1507;SDS011;745;48.586;10.032;2024-03-06T01:10:17;23.23;;;16.60;;
1507;SDS011;745;48.586;10.032;2024-03-06T01:12:18;25.80;;;17.17;;
1507;SDS011;745;48.586;10.032;2024-03-06T01:14:18;25.67;;;17.87;;
1507;SDS011;745;48.586;10.032;2024-03-06T01:16:18;33.63;;;19.07;;
1507;SDS011;745;48.586;10.032;2024-03-06T01:18:19;27.53;;;18.80;;
1507;SDS011;745;48.586;10.032;2024-03-06T01:20:19;26.87;;;19.00;;
1507;SDS011;745;48.586;10.032;2024-03-06T01:22:19;25.73;;;17.70;;
1507;SDS011;745;48.586;10.032;2024-03-06T01:24:20;27.70;;;17.87;;
1507;SDS011;745;48.586;10.032;2024-03-06T01:26:20;26.50;;;17.87;;
1507;SDS011;745;48.586;10.032;2024-03-06T01:28:20;25.33;;;17.70;;
1507;SDS011;745;48.586;10.032;2024-03-06T01:30:21;24.20;;;18.27;;
1507;SDS011;745;48.586;10.032;2024-03-06T01:32:21;27.50;;;17.97;;
1507;SDS011;745;48.586;10.032;2024-03-06T01:34:21;28.70;;;19.00;;
1507;SDS011;745;48.586;10.032;2024-03-06T01:36:22;24.07;;;18.23;;
1507;SDS011;745;48.586;10.032;2024-03-06T01:38:22;22.80;;;16.97;;
1507;SDS011;745;48.586;10.032;2024-03-06T01:40:23;22.60;;;17.37;;
1507;SDS011;745;48.586;10.032;2024-03-06T01:42:23;22.57;;;17.20;;
1507;SDS011;745;48.586;10.032;2024-03-06T01:44:24;23.93;;;17.43;;
1507;SDS011;745;48.586;10.032;2024-03-06T01:46:25;23.77;;;18.13;;
1507;SDS011;745;48.586;10.032;2024-03-06T01:48:26;23.60;;;17.80;;
1507;SDS011;745;48.586;10.032;2024-03-06T01:50:28;23.70;;;17.25;;
1507;SDS011;745;48.586;10.032;2024-03-06T01:52:29;24.92;;;17.90;;
1507;SDS011;745;48.586;10.032;2024-03-06T01:54:29;22.60;;;17.00;;
1507;SDS011;745;48.586;10.032;2024-03-06T01:56:31;23.65;;;17.30;;
1507;SDS011;745;48.586;10.032;2024-03-06T01:58:33;24.50;;;16.60;;
1507;SDS011;745;48.586;10.032;2024-03-06T02:00:34;21.70;;;15.60;;
1507;SDS011;745;48.586;10.032;2024-03-06T02:02:35;22.08;;;16.00;;
1507;SDS011;745;48.586;10.032;2024-03-06T02:04:35;23.10;;;16.80;;
1507;SDS011;745;48.586;10.032;2024-03-06T02:06:35;20.37;;;15.00;;
1507;SDS011;745;48.586;10.032;2024-03-06T02:08:36;21.37;;;15.30;;
1507;SDS011;745;48.586;10.032;2024-03-06T02:10:36;24.27;;;17.20;;
1507;SDS011;745;48.586;10.032;2024-03-06T02:12:37;20.57;;;14.63;;
1507;SDS011;745;48.586;10.032;2024-03-06T02:14:37;21.30;;;16.23;;
1507;SDS011;745;48.586;10.032;2024-03-06T02:16:38;22.23;;;16.77;;
1507;SDS011;745;48.586;10.032;2024-03-06T02:18:53;20.33;;;14.80;;
1507;SDS011;745;48.586;10.032;2024-03-06T02:20:59;21.23;;;14.95;;
1507;SDS011;745;48.586;10.032;2024-03-06T02:22:59;20.20;;;15.50;;
1507;SDS011;745;48.586;10.032;2024-03-06T02:25:00;21.40;;;14.93;;
1507;SDS011;745;48.586;10.032;2024-03-06T02:27:00;21.83;;;15.13;;
1507;SDS011;745;48.586;10.032;2024-03-06T02:29:00;22.63;;;15.53;;
1507;SDS011;745;48.586;10.032;2024-03-06T02:31:01;20.93;;;16.13;;
1507;SDS011;745;48.586;10.032;2024-03-06T02:33:05;21.00;;;15.67;;
1507;SDS011;745;48.586;10.032;2024-03-06T02:35:06;20.10;;;15.70;;
1507;SDS011;745;48.586;10.032;2024-03-06T02:37:08;24.20;;;15.80;;
1507;SDS011;745;48.586;10.032;2024-03-06T02:39:09;22.30;;;15.20;;
1507;SDS011;745;48.586;10.032;2024-03-06T02:41:10;23.63;;;15.47;;
1507;SDS011;745;48.586;10.032;2024-03-06T02:43:11;21.65;;;15.18;;
1507;SDS011;745;48.586;10.032;2024-03-06T02:45:11;19.63;;;14.60;;
1507;SDS011;745;48.586;10.032;2024-03-06T02:47:11;21.07;;;15.00;;
1507;SDS011;745;48.586;10.032;2024-03-06T02:49:12;20.27;;;15.23;;
1507;SDS011;745;48.586;10.032;2024-03-06T02:51:17;18.57;;;13.53;;
1507;SDS011;745;48.586;10.032;2024-03-06T02:53:18;21.20;;;13.82;;
1507;SDS011;745;48.586;10.032;2024-03-06T02:55:18;16.77;;;12.90;;
1507;SDS011;745;48.586;10.032;2024-03-06T02:57:19;17.53;;;13.50;;
1507;SDS011;745;48.586;10.032;2024-03-06T02:59:20;17.37;;;12.80;;
1507;SDS011;745;48.586;10.032;2024-03-06T03:01:20;17.70;;;12.77;;
1507;SDS011;745;48.586;10.032;2024-03-06T03:03:20;16.43;;;13.10;;
1507;SDS011;745;48.586;10.032;2024-03-06T03:05:21;25.73;;;14.17;;
1507;SDS011;745;48.586;10.032;2024-03-06T03:07:21;17.43;;;12.80;;
1507;SDS011;745;48.586;10.032;2024-03-06T03:09:23;16.15;;;12.40;;
1507;SDS011;745;48.586;10.032;2024-03-06T03:11:23;15.90;;;12.37;;
1507;SDS011;745;48.586;10.032;2024-03-06T03:13:24;15.50;;;12.67;;
1507;SDS011;745;48.586;10.032;2024-03-06T03:15:24;17.00;;;12.77;;
1507;SDS011;745;48.586;10.032;2024-03-06T03:17:24;18.67;;;12.23;;
1507;SDS011;745;48.586;10.032;2024-03-06T03:19:25;17.87;;;12.37;;
1507;SDS011;745;48.586;10.032;2024-03-06T03:21:26;16.60;;;13.13;;
1507;SDS011;745;48.586;10.032;2024-03-06T03:23:26;15.53;;;12.87;;
1507;SDS011;745;48.586;10.032;2024-03-06T03:25:26;19.37;;;13.23;;
1507;SDS011;745;48.586;10.032;2024-03-06T03:27:27;19.90;;;13.93;;
1507;SDS011;745;48.586;10.032;2024-03-06T03:29:28;20.07;;;13.40;;
1507;SDS011;745;48.586;10.032;2024-03-06T03:31:29;14.82;;;11.95;;
1507;SDS011;745;48.586;10.032;2024-03-06T03:33:29;19.60;;;14.50;;
1507;SDS011;745;48.586;10.032;2024-03-06T03:35:30;16.40;;;12.90;;
1507;SDS011;745;48.586;10.032;2024-03-06T03:37:31;17.98;;;13.45;;
1507;SDS011;745;48.586;10.032;2024-03-06T03:39:32;16.47;;;12.53;;
1507;SDS011;745;48.586;10.032;2024-03-06T03:41:32;17.43;;;14.20;;
1507;SDS011;745;48.586;10.032;2024-03-06T03:43:32;17.20;;;13.40;;
1507;SDS011;745;48.586;10.032;2024-03-06T03:45:33;19.23;;;13.17;;
1507;SDS011;745;48.586;10.032;2024-03-06T03:47:33;17.60;;;12.40;;
1507;SDS011;745;48.586;10.032;2024-03-06T03:49:34;19.60;;;13.60;;
1507;SDS011;745;48.586;10.032;2024-03-06T03:51:35;20.67;;;13.50;;
1507;SDS011;745;48.586;10.032;2024-03-06T03:53:36;21.00;;;14.48;;
1507;SDS011;745;48.586;10.032;2024-03-06T03:55:36;19.30;;;13.20;;
1507;SDS011;745;48.586;10.032;2024-03-06T03:57:36;20.17;;;13.80;;
1507;SDS011;745;48.586;10.032;2024-03-06T03:59:38;17.83;;;14.20;;
1507;SDS011;745;48.586;10.032;2024-03-06T04:01:38;19.45;;;13.45;;
1507;SDS011;745;48.586;10.032;2024-03-06T04:03:39;17.90;;;13.10;;
1507;SDS011;745;48.586;10.032;2024-03-06T04:05:40;18.65;;;12.95;;
1507;SDS011;745;48.586;10.032;2024-03-06T04:07:41;19.20;;;12.47;;
1507;SDS011;745;48.586;10.032;2024-03-06T04:09:41;17.77;;;12.60;;
1507;SDS011;745;48.586;10.032;2024-03-06T04:11:41;14.60;;;11.43;;
1507;SDS011;745;48.586;10.032;2024-03-06T04:13:42;17.27;;;10.47;;
1507;SDS011;745;48.586;10.032;2024-03-06T04:15:42;17.90;;;11.60;;
1507;SDS011;745;48.586;10.032;2024-03-06T04:17:42;16.10;;;11.97;;
1507;SDS011;745;48.586;10.032;2024-03-06T04:19:43;14.87;;;11.20;;
1507;SDS011;745;48.586;10.032;2024-03-06T04:21:43;14.67;;;10.93;;
1507;SDS011;745;48.586;10.032;2024-03-06T04:23:44;13.93;;;10.77;;
1507;SDS011;745;48.586;10.032;2024-03-06T04:25:44;13.30;;;10.20;;
1507;SDS011;745;48.586;10.032;2024-03-06T04:27:44;17.73;;;11.00;;
1507;SDS011;745;48.586;10.032;2024-03-06T04:29:45;12.60;;;9.50;;
1507;SDS011;745;48.586;10.032;2024-03-06T04:31:45;14.37;;;9.93;;
1507;SDS011;745;48.586;10.032;2024-03-06T04:33:45;15.33;;;10.10;;
1507;SDS011;745;48.586;10.032;2024-03-06T04:35:46;10.00;;;8.70;;
1507;SDS011;745;48.586;10.032;2024-03-06T04:37:46;13.13;;;9.57;;
1507;SDS011;745;48.586;10.032;2024-03-06T04:39:46;13.27;;;10.67;;
1507;SDS011;745;48.586;10.032;2024-03-06T04:41:47;12.87;;;9.43;;
1507;SDS011;745;48.586;10.032;2024-03-06T04:43:47;11.20;;;9.63;;
1507;SDS011;745;48.586;10.032;2024-03-06T04:45:50;10.70;;;8.50;;
1507;SDS011;745;48.586;10.032;2024-03-06T04:47:50;11.27;;;9.13;;
1507;SDS011;745;48.586;10.032;2024-03-06T04:49:51;14.33;;;10.40;;
1507;SDS011;745;48.586;10.032;2024-03-06T04:51:51;13.10;;;9.37;;
1507;SDS011;745;48.586;10.032;2024-03-06T04:53:51;14.50;;;9.50;;
1507;SDS011;745;48.586;10.032;2024-03-06T04:55:52;11.80;;;9.30;;
1507;SDS011;745;48.586;10.032;2024-03-06T04:57:52;12.90;;;9.27;;
1507;SDS011;745;48.586;10.032;2024-03-06T04:59:53;10.33;;;8.60;;
1507;SDS011;745;48.586;10.032;2024-03-06T05:01:53;13.33;;;9.40;;
1507;SDS011;745;48.586;10.032;2024-03-06T05:03:54;11.50;;;8.93;;
1507;SDS011;745;48.586;10.032;2024-03-06T05:05:55;15.10;;;10.70;;
1507;SDS011;745;48.586;10.032;2024-03-06T05:07:56;10.75;;;8.43;;
1507;SDS011;745;48.586;10.032;2024-03-06T05:09:56;13.03;;;9.63;;
1507;SDS011;745;48.586;10.032;2024-03-06T05:11:58;11.82;;;9.07;;
1507;SDS011;745;48.586;10.032;2024-03-06T05:13:59;13.50;;;8.77;;
1507;SDS011;745;48.586;10.032;2024-03-06T05:16:00;14.20;;;10.55;;
1507;SDS011;745;48.586;10.032;2024-03-06T05:18:00;13.00;;;8.77;;
1507;SDS011;745;48.586;10.032;2024-03-06T05:20:00;14.10;;;10.23;;
1507;SDS011;745;48.586;10.032;2024-03-06T05:22:01;12.70;;;10.20;;
1507;SDS011;745;48.586;10.032;2024-03-06T05:24:01;14.50;;;9.63;;
1507;SDS011;745;48.586;10.032;2024-03-06T05:26:02;12.57;;;9.13;;
1507;SDS011;745;48.586;10.032;2024-03-06T05:28:02;10.47;;;8.50;;
1507;SDS011;745;48.586;10.032;2024-03-06T05:30:04;14.18;;;9.38;;
1507;SDS011;745;48.586;10.032;2024-03-06T05:32:05;11.75;;;8.80;;
1507;SDS011;745;48.586;10.032;2024-03-06T05:34:07;13.82;;;8.57;;
1507;SDS011;745;48.586;10.032;2024-03-06T05:36:08;11.83;;;9.17;;
1507;SDS011;745;48.586;10.032;2024-03-06T05:38:08;12.67;;;9.70;;
1507;SDS011;745;48.586;10.032;2024-03-06T05:40:09;12.53;;;9.10;;
1507;SDS011;745;48.586;10.032;2024-03-06T05:42:10;14.20;;;9.50;;
1507;SDS011;745;48.586;10.032;2024-03-06T05:44:10;11.23;;;8.50;;
1507;SDS011;745;48.586;10.032;2024-03-06T05:46:11;12.00;;;8.37;;
1507;SDS011;745;48.586;10.032;2024-03-06T05:48:11;9.70;;;8.53;;
1507;SDS011;745;48.586;10.032;2024-03-06T05:50:12;12.23;;;8.53;;
1507;SDS011;745;48.586;10.032;2024-03-06T05:52:12;13.27;;;9.53;;
1507;SDS011;745;48.586;10.032;2024-03-06T05:54:12;11.77;;;8.70;;
1507;SDS011;745;48.586;10.032;2024-03-06T05:56:12;12.57;;;8.90;;
1507;SDS011;745;48.586;10.032;2024-03-06T05:58:13;10.90;;;8.10;;
1507;SDS011;745;48.586;10.032;2024-03-06T06:00:13;11.10;;;7.57;;
1507;SDS011;745;48.586;10.032;2024-03-06T06:02:14;9.73;;;7.40;;
1507;SDS011;745;48.586;10.032;2024-03-06T06:04:19;11.18;;;8.32;;
1507;SDS011;745;48.586;10.032;2024-03-06T06:06:19;9.90;;;8.53;;
1507;SDS011;745;48.586;10.032;2024-03-06T06:08:20;14.13;;;8.50;;
1507;SDS011;745;48.586;10.032;2024-03-06T06:10:20;10.00;;;8.27;;
1507;SDS011;745;48.586;10.032;2024-03-06T06:12:21;10.13;;;8.50;;
1507;SDS011;745;48.586;10.032;2024-03-06T06:14:21;10.37;;;8.20;;
1507;SDS011;745;48.586;10.032;2024-03-06T06:16:22;9.77;;;8.13;;
1507;SDS011;745;48.586;10.032;2024-03-06T06:18:22;11.70;;;8.00;;
1507;SDS011;745;48.586;10.032;2024-03-06T06:20:22;12.00;;;8.30;;
1507;SDS011;745;48.586;10.032;2024-03-06T06:22:24;10.73;;;8.15;;
1507;SDS011;745;48.586;10.032;2024-03-06T06:24:24;10.77;;;7.93;;
1507;SDS011;745;48.586;10.032;2024-03-06T06:26:24;11.23;;;7.83;;
1507;SDS011;745;48.586;10.032;2024-03-06T06:28:25;12.40;;;8.97;;
1507;SDS011;745;48.586;10.032;2024-03-06T06:30:25;10.53;;;7.40;;
1507;SDS011;745;48.586;10.032;2024-03-06T06:32:25;10.13;;;7.80;;
1507;SDS011;745;48.586;10.032;2024-03-06T06:34:26;10.20;;;8.20;;
1507;SDS011;745;48.586;10.032;2024-03-06T06:36:27;12.48;;;8.63;;
1507;SDS011;745;48.586;10.032;2024-03-06T06:38:28;11.70;;;8.27;;
1507;SDS011;745;48.586;10.032;2024-03-06T06:40:28;12.73;;;9.43;;
1507;SDS011;745;48.586;10.032;2024-03-06T06:42:28;11.90;;;8.80;;
1507;SDS011;745;48.586;10.032;2024-03-06T06:44:29;13.30;;;9.47;;
1507;SDS011;745;48.586;10.032;2024-03-06T06:46:29;11.33;;;8.63;;
1507;SDS011;745;48.586;10.032;2024-03-06T06:48:29;11.70;;;8.60;;
1507;SDS011;745;48.586;10.032;2024-03-06T06:50:30;14.87;;;8.53;;
1507;SDS011;745;48.586;10.032;2024-03-06T06:52:33;13.65;;;8.95;;
1507;SDS011;745;48.586;10.032;2024-03-06T06:54:33;12.97;;;9.60;;
1507;SDS011;745;48.586;10.032;2024-03-06T06:56:34;13.40;;;9.20;;
1507;SDS011;745;48.586;10.032;2024-03-06T06:58:34;9.57;;;8.40;;
1507;SDS011;745;48.586;10.032;2024-03-06T07:00:34;13.07;;;9.00;;
1507;SDS011;745;48.586;10.032;2024-03-06T07:02:39;14.57;;;9.60;;
1507;SDS011;745;48.586;10.032;2024-03-06T07:04:40;12.27;;;9.13;;
1507;SDS011;745;48.586;10.032;2024-03-06T07:06:41;12.23;;;9.03;;
1507;SDS011;745;48.586;10.032;2024-03-06T07:08:41;12.47;;;8.93;;
1507;SDS011;745;48.586;10.032;2024-03-06T07:10:42;12.70;;;9.70;;
1507;SDS011;745;48.586;10.032;2024-03-06T07:12:42;13.47;;;8.90;;
1507;SDS011;745;48.586;10.032;2024-03-06T07:14:42;13.60;;;9.30;;
1507;SDS011;745;48.586;10.032;2024-03-06T07:16:43;11.40;;;9.10;;
1507;SDS011;745;48.586;10.032;2024-03-06T07:18:44;13.48;;;9.10;;
1507;SDS011;745;48.586;10.032;2024-03-06T07:20:44;10.90;;;8.00;;
1507;SDS011;745;48.586;10.032;2024-03-06T07:22:44;12.70;;;8.80;;
1507;SDS011;745;48.586;10.032;2024-03-06T07:24:45;15.33;;;10.63;;
1507;SDS011;745;48.586;10.032;2024-03-06T07:26:45;12.47;;;9.37;;
1507;SDS011;745;48.586;10.032;2024-03-06T07:28:45;12.20;;;8.87;;
1507;SDS011;745;48.586;10.032;2024-03-06T07:30:45;11.00;;;8.63;;
1507;SDS011;745;48.586;10.032;2024-03-06T07:32:46;12.17;;;8.63;;
1507;SDS011;745;48.586;10.032;2024-03-06T07:34:46;14.90;;;8.70;;
1507;SDS011;745;48.586;10.032;2024-03-06T07:36:47;13.17;;;8.80;;
1507;SDS011;745;48.586;10.032;2024-03-06T07:38:47;12.20;;;8.80;;
1507;SDS011;745;48.586;10.032;2024-03-06T07:40:48;13.67;;;9.20;;
1507;SDS011;745;48.586;10.032;2024-03-06T07:42:48;13.87;;;8.37;;
1507;SDS011;745;48.586;10.032;2024-03-06T07:44:48;11.40;;;8.30;;
1507;SDS011;745;48.586;10.032;2024-03-06T07:46:49;12.80;;;9.20;;
1507;SDS011;745;48.586;10.032;2024-03-06T07:48:49;14.13;;;9.37;;
1507;SDS011;745;48.586;10.032;2024-03-06T07:50:51;14.52;;;8.77;;
1507;SDS011;745;48.586;10.032;2024-03-06T07:52:51;14.50;;;9.60;;
1507;SDS011;745;48.586;10.032;2024-03-06T07:54:52;19.13;;;10.40;;
1507;SDS011;745;48.586;10.032;2024-03-06T07:56:52;13.00;;;9.40;;
1507;SDS011;745;48.586;10.032;2024-03-06T07:58:53;16.90;;;10.82;;
1507;SDS011;745;48.586;10.032;2024-03-06T08:00:54;13.15;;;9.57;;
1507;SDS011;745;48.586;10.032;2024-03-06T08:02:56;15.02;;;9.80;;
1507;SDS011;745;48.586;10.032;2024-03-06T08:04:56;13.40;;;9.00;;
1507;SDS011;745;48.586;10.032;2024-03-06T08:06:57;13.97;;;9.93;;
1507;SDS011;745;48.586;10.032;2024-03-06T08:08:58;15.20;;;9.87;;
1507;SDS011;745;48.586;10.032;2024-03-06T08:10:59;15.10;;;10.52;;
1507;SDS011;745;48.586;10.032;2024-03-06T08:12:59;14.80;;;9.60;;
1507;SDS011;745;48.586;10.032;2024-03-06T08:14:59;11.47;;;8.53;;
1507;SDS011;745;48.586;10.032;2024-03-06T08:17:01;13.05;;;9.20;;
1507;SDS011;745;48.586;10.032;2024-03-06T08:19:03;12.68;;;9.48;;
1507;SDS011;745;48.586;10.032;2024-03-06T08:21:03;12.20;;;9.10;;
1507;SDS011;745;48.586;10.032;2024-03-06T08:23:06;15.77;;;9.68;;
1507;SDS011;745;48.586;10.032;2024-03-06T08:25:07;13.27;;;9.02;;
1507;SDS011;745;48.586;10.032;2024-03-06T08:27:09;11.50;;;8.45;;
1507;SDS011;745;48.586;10.032;2024-03-06T08:29:09;12.30;;;8.63;;
1507;SDS011;745;48.586;10.032;2024-03-06T08:31:09;11.90;;;8.73;;
1507;SDS011;745;48.586;10.032;2024-03-06T08:33:10;11.73;;;8.10;;
1507;SDS011;745;48.586;10.032;2024-03-06T08:35:11;12.45;;;9.18;;
1507;SDS011;745;48.586;10.032;2024-03-06T08:37:12;12.85;;;8.85;;
1507;SDS011;745;48.586;10.032;2024-03-06T08:39:13;14.80;;;9.07;;
1507;SDS011;745;48.586;10.032;2024-03-06T08:41:15;12.35;;;8.95;;
1507;SDS011;745;48.586;10.032;2024-03-06T08:43:16;13.30;;;9.33;;
1507;SDS011;745;48.586;10.032;2024-03-06T08:45:16;13.13;;;9.07;;
1507;SDS011;745;48.586;10.032;2024-03-06T08:47:17;15.47;;;9.40;;
1507;SDS011;745;48.586;10.032;2024-03-06T08:49:17;13.40;;;9.70;;
1507;SDS011;745;48.586;10.032;2024-03-06T08:51:18;13.50;;;9.30;;
1507;SDS011;745;48.586;10.032;2024-03-06T08:53:18;16.73;;;10.17;;
1507;SDS011;745;48.586;10.032;2024-03-06T08:55:18;15.10;;;8.23;;
1507;SDS011;745;48.586;10.032;2024-03-06T08:57:19;13.23;;;9.40;;
1507;SDS011;745;48.586;10.032;2024-03-06T08:59:21;12.15;;;9.27;;
1507;SDS011;745;48.586;10.032;2024-03-06T09:01:22;14.50;;;9.50;;
1507;SDS011;745;48.586;10.032;2024-03-06T09:03:22;13.50;;;10.17;;
1507;SDS011;745;48.586;10.032;2024-03-06T09:05:23;11.80;;;8.40;;
1507;SDS011;745;48.586;10.032;2024-03-06T09:07:23;13.13;;;9.13;;
1507;SDS011;745;48.586;10.032;2024-03-06T09:09:23;15.60;;;9.80;;
1507;SDS011;745;48.586;10.032;2024-03-06T09:11:24;14.30;;;11.13;;
1507;SDS011;745;48.586;10.032;2024-03-06T09:13:25;12.47;;;8.03;;
1507;SDS011;745;48.586;10.032;2024-03-06T09:15:26;12.52;;;9.00;;
1507;SDS011;745;48.586;10.032;2024-03-06T09:17:27;13.50;;;8.93;;
1507;SDS011;745;48.586;10.032;2024-03-06T09:19:27;13.80;;;9.37;;
1507;SDS011;745;48.586;10.032;2024-03-06T09:21:28;15.03;;;9.60;;
1507;SDS011;745;48.586;10.032;2024-03-06T09:23:28;12.50;;;9.00;;
1507;SDS011;745;48.586;10.032;2024-03-06T09:25:30;11.88;;;8.88;;
1507;SDS011;745;48.586;10.032;2024-03-06T09:27:30;11.53;;;7.97;;
1507;SDS011;745;48.586;10.032;2024-03-06T09:29:30;12.90;;;9.43;;
1507;SDS011;745;48.586;10.032;2024-03-06T09:31:31;14.27;;;9.67;;
1507;SDS011;745;48.586;10.032;2024-03-06T09:33:31;12.27;;;8.87;;
1507;SDS011;745;48.586;10.032;2024-03-06T09:35:31;12.90;;;9.13;;
1507;SDS011;745;48.586;10.032;2024-03-06T09:37:32;11.68;;;8.60;;
1507;SDS011;745;48.586;10.032;2024-03-06T09:39:33;12.40;;;9.20;;
1507;SDS011;745;48.586;10.032;2024-03-06T09:41:35;13.32;;;8.60;;
1507;SDS011;745;48.586;10.032;2024-03-06T09:43:35;10.80;;;7.50;;
1507;SDS011;745;48.586;10.032;2024-03-06T09:45:36;13.07;;;8.13;;
1507;SDS011;745;48.586;10.032;2024-03-06T09:47:36;10.10;;;7.83;;
1507;SDS011;745;48.586;10.032;2024-03-06T09:49:38;12.32;;;8.90;;
1507;SDS011;745;48.586;10.032;2024-03-06T09:51:39;12.90;;;8.20;;
1507;SDS011;745;48.586;10.032;2024-03-06T09:53:42;10.30;;;7.68;;
1507;SDS011;745;48.586;10.032;2024-03-06T09:55:43;9.63;;;7.73;;
1507;SDS011;745;48.586;10.032;2024-03-06T09:57:47;7.95;;;6.30;;
1507;SDS011;745;48.586;10.032;2024-03-06T09:59:48;8.95;;;6.60;;
1507;SDS011;745;48.586;10.032;2024-03-06T10:01:56;9.70;;;7.23;;
1507;SDS011;745;48.586;10.032;2024-03-06T10:03:57;7.90;;;6.60;;
1507;SDS011;745;48.586;10.032;2024-03-06T10:05:57;9.90;;;6.80;;
1507;SDS011;745;48.586;10.032;2024-03-06T10:07:58;9.07;;;6.50;;
1507;SDS011;745;48.586;10.032;2024-03-06T10:09:59;13.50;;;6.60;;
1507;SDS011;745;48.586;10.032;2024-03-06T10:11:59;9.40;;;6.97;;
1507;SDS011;745;48.586;10.032;2024-03-06T10:14:00;8.93;;;6.77;;
1507;SDS011;745;48.586;10.032;2024-03-06T10:16:01;8.90;;;7.23;;
1507;SDS011;745;48.586;10.032;2024-03-06T10:18:15;9.02;;;6.35;;
1507;SDS011;745;48.586;10.032;2024-03-06T10:20:21;11.07;;;6.97;;
1507;SDS011;745;48.586;10.032;2024-03-06T10:22:22;9.57;;;6.82;;
1507;SDS011;745;48.586;10.032;2024-03-06T10:24:26;11.80;;;7.75;;
1507;SDS011;745;48.586;10.032;2024-03-06T10:26:30;10.70;;;6.80;;
1507;SDS011;745;48.586;10.032;2024-03-06T10:28:30;9.13;;;6.72;;
1507;SDS011;745;48.586;10.032;2024-03-06T10:30:36;10.35;;;7.13;;
1507;SDS011;745;48.586;10.032;2024-03-06T10:32:37;9.48;;;6.82;;
1507;SDS011;745;48.586;10.032;2024-03-06T10:34:38;7.73;;;6.80;;
1507;SDS011;745;48.586;10.032;2024-03-06T10:36:40;9.63;;;6.95;;
1507;SDS011;745;48.586;10.032;2024-03-06T10:38:42;8.20;;;6.32;;
1507;SDS011;745;48.586;10.032;2024-03-06T10:40:44;8.10;;;6.82;;
1507;SDS011;745;48.586;10.032;2024-03-06T10:42:44;11.53;;;7.20;;
1507;SDS011;745;48.586;10.032;2024-03-06T10:44:50;11.10;;;7.97;;
1507;SDS011;745;48.586;10.032;2024-03-06T10:46:56;8.52;;;7.20;;
1507;SDS011;745;48.586;10.032;2024-03-06T10:48:58;9.23;;;6.10;;
1507;SDS011;745;48.586;10.032;2024-03-06T10:51:00;8.88;;;7.40;;
1507;SDS011;745;48.586;10.032;2024-03-06T10:53:03;9.55;;;7.20;;
1507;SDS011;745;48.586;10.032;2024-03-06T10:55:03;11.17;;;7.73;;
1507;SDS011;745;48.586;10.032;2024-03-06T10:57:04;10.13;;;7.40;;
1507;SDS011;745;48.586;10.032;2024-03-06T10:59:05;9.65;;;7.05;;
1507;SDS011;745;48.586;10.032;2024-03-06T11:01:06;10.93;;;7.73;;
1507;SDS011;745;48.586;10.032;2024-03-06T11:03:09;9.10;;;6.68;;
1507;SDS011;745;48.586;10.032;2024-03-06T11:05:12;10.82;;;7.38;;
1507;SDS011;745;48.586;10.032;2024-03-06T11:07:12;8.73;;;6.37;;
1507;SDS011;745;48.586;10.032;2024-03-06T11:09:12;8.20;;;6.30;;
1507;SDS011;745;48.586;10.032;2024-03-06T11:11:19;10.27;;;7.75;;
1507;SDS011;745;48.586;10.032;2024-03-06T11:13:23;8.90;;;6.95;;
1507;SDS011;745;48.586;10.032;2024-03-06T11:15:24;8.77;;;7.05;;
1507;SDS011;745;48.586;10.032;2024-03-06T11:17:27;12.70;;;7.77;;
1507;SDS011;745;48.586;10.032;2024-03-06T11:19:29;10.70;;;7.28;;
1507;SDS011;745;48.586;10.032;2024-03-06T11:21:33;12.50;;;7.88;;
1507;SDS011;745;48.586;10.032;2024-03-06T11:23:33;9.93;;;7.40;;
1507;SDS011;745;48.586;10.032;2024-03-06T11:28:07;10.27;;;6.95;;
1507;SDS011;745;48.586;10.032;2024-03-06T11:30:10;10.30;;;7.78;;
1507;SDS011;745;48.586;10.032;2024-03-06T11:32:13;11.30;;;7.70;;
1507;SDS011;745;48.586;10.032;2024-03-06T11:34:14;14.10;;;7.80;;
1507;SDS011;745;48.586;10.032;2024-03-06T11:38:23;11.02;;;7.55;;
1507;SDS011;745;48.586;10.032;2024-03-06T11:40:26;9.70;;;7.38;;
1507;SDS011;745;48.586;10.032;2024-03-06T11:42:33;12.07;;;7.53;;
1507;SDS011;745;48.586;10.032;2024-03-06T11:44:37;11.60;;;8.38;;
1507;SDS011;745;48.586;10.032;2024-03-06T11:46:57;16.10;;;8.30;;
1507;SDS011;745;48.586;10.032;2024-03-06T11:48:59;12.27;;;7.82;;
1507;SDS011;745;48.586;10.032;2024-03-06T11:51:01;11.27;;;7.40;;
1507;SDS011;745;48.586;10.032;2024-03-06T11:53:02;9.05;;;7.05;;
1507;SDS011;745;48.586;10.032;2024-03-06T11:55:05;9.02;;;7.30;;
1507;SDS011;745;48.586;10.032;2024-03-06T11:57:05;10.77;;;7.50;;
1507;SDS011;745;48.586;10.032;2024-03-06T11:59:06;9.75;;;7.50;;
1507;SDS011;745;48.586;10.032;2024-03-06T12:01:07;9.20;;;6.90;;
1507;SDS011;745;48.586;10.032;2024-03-06T12:03:07;9.40;;;7.40;;
1507;SDS011;745;48.586;10.032;2024-03-06T12:05:08;10.70;;;7.87;;
1507;SDS011;745;48.586;10.032;2024-03-06T12:07:10;10.65;;;6.82;;
1507;SDS011;745;48.586;10.032;2024-03-06T12:09:10;8.20;;;7.00;;
1507;SDS011;745;48.586;10.032;2024-03-06T12:11:11;9.03;;;6.57;;
1507;SDS011;745;48.586;10.032;2024-03-06T12:13:11;10.73;;;7.90;;
1507;SDS011;745;48.586;10.032;2024-03-06T12:15:11;9.70;;;7.33;;
1507;SDS011;745;48.586;10.032;2024-03-06T12:17:15;9.82;;;7.50;;
1507;SDS011;745;48.586;10.032;2024-03-06T12:19:15;7.67;;;6.23;;
1507;SDS011;745;48.586;10.032;2024-03-06T12:21:15;7.23;;;5.73;;
1507;SDS011;745;48.586;10.032;2024-03-06T12:23:19;7.43;;;5.67;;